Binghamton, New York
Current Conditions -  °F | °C
As of 5:15 PM on Monday 22 Dec 2014 (Local Time) from KBGM Reporting Station
Broken Clouds Broken Clouds  
Wind Chill: 25°   Ceiling: 8000
Heat Index: 33°   Visibility: 10mi
Dew Point: 28°   Wind: 10mph
Humidity: 82%   Direction: 150°SSE
Pressure: 30.13"   Gusts: NA
Location:  42.1°N, 75.91°W
Report Text: KBGM 222215Z 15009KT 10SM SCT022 BKN080 01/M02 A3013 RMK AO2 T00061022
Loading
Personal Weather Stations






























Interactive Weather Map New forecast layout! Learn more

10-Day Weather Forecast

Advertisements
Track Severe Weather on mobile